sensor_id;sensor_type;location;lat;lon;timestamp;P1;durP1;ratioP1;P2;durP2;ratioP2
15643;SDS011;7921;43.586;1.408;2023-03-14T00:00:29;2.97;;;1.20;;
15643;SDS011;7921;43.586;1.408;2023-03-14T00:02:54;5.33;;;1.70;;
15643;SDS011;7921;43.586;1.408;2023-03-14T00:05:20;3.33;;;1.40;;
15643;SDS011;7921;43.586;1.408;2023-03-14T00:07:45;3.80;;;1.47;;
15643;SDS011;7921;43.586;1.408;2023-03-14T00:10:12;3.77;;;1.60;;
15643;SDS011;7921;43.586;1.408;2023-03-14T00:12:39;2.90;;;1.80;;
15643;SDS011;7921;43.586;1.408;2023-03-14T00:15:04;4.33;;;1.37;;
15643;SDS011;7921;43.586;1.408;2023-03-14T00:17:32;3.83;;;1.50;;
15643;SDS011;7921;43.586;1.408;2023-03-14T00:19:58;2.73;;;1.60;;
15643;SDS011;7921;43.586;1.408;2023-03-14T00:22:29;3.67;;;1.33;;
15643;SDS011;7921;43.586;1.408;2023-03-14T00:24:55;3.43;;;1.30;;
15643;SDS011;7921;43.586;1.408;2023-03-14T00:27:21;4.03;;;1.83;;
15643;SDS011;7921;43.586;1.408;2023-03-14T00:29:46;4.20;;;1.53;;
15643;SDS011;7921;43.586;1.408;2023-03-14T00:32:11;3.80;;;1.40;;
15643;SDS011;7921;43.586;1.408;2023-03-14T00:34:37;3.70;;;1.83;;
15643;SDS011;7921;43.586;1.408;2023-03-14T00:37:02;4.57;;;1.60;;
15643;SDS011;7921;43.586;1.408;2023-03-14T00:39:27;3.73;;;1.57;;
15643;SDS011;7921;43.586;1.408;2023-03-14T00:41:53;3.97;;;1.93;;
15643;SDS011;7921;43.586;1.408;2023-03-14T00:44:18;3.63;;;1.70;;
15643;SDS011;7921;43.586;1.408;2023-03-14T00:46:44;3.70;;;1.60;;
15643;SDS011;7921;43.586;1.408;2023-03-14T00:49:09;4.67;;;2.10;;
15643;SDS011;7921;43.586;1.408;2023-03-14T00:51:34;5.07;;;2.63;;
15643;SDS011;7921;43.586;1.408;2023-03-14T00:54:00;3.70;;;1.63;;
15643;SDS011;7921;43.586;1.408;2023-03-14T00:56:25;3.53;;;1.70;;
15643;SDS011;7921;43.586;1.408;2023-03-14T00:58:54;4.43;;;1.57;;
15643;SDS011;7921;43.586;1.408;2023-03-14T01:01:20;3.97;;;1.70;;
15643;SDS011;7921;43.586;1.408;2023-03-14T01:03:46;5.00;;;1.60;;
15643;SDS011;7921;43.586;1.408;2023-03-14T01:06:14;2.90;;;1.40;;
15643;SDS011;7921;43.586;1.408;2023-03-14T01:08:40;5.77;;;2.10;;
15643;SDS011;7921;43.586;1.408;2023-03-14T01:11:07;3.93;;;1.40;;
15643;SDS011;7921;43.586;1.408;2023-03-14T01:13:33;5.57;;;1.63;;
15643;SDS011;7921;43.586;1.408;2023-03-14T01:16:06;3.80;;;1.87;;
15643;SDS011;7921;43.586;1.408;2023-03-14T01:18:33;3.03;;;1.50;;
15643;SDS011;7921;43.586;1.408;2023-03-14T01:21:21;5.90;;;1.80;;
15643;SDS011;7921;43.586;1.408;2023-03-14T01:23:47;4.20;;;1.60;;
15643;SDS011;7921;43.586;1.408;2023-03-14T01:26:15;2.83;;;1.33;;
15643;SDS011;7921;43.586;1.408;2023-03-14T01:28:44;4.40;;;1.70;;
15643;SDS011;7921;43.586;1.408;2023-03-14T01:31:10;6.40;;;2.10;;
15643;SDS011;7921;43.586;1.408;2023-03-14T01:33:36;6.50;;;1.67;;
15643;SDS011;7921;43.586;1.408;2023-03-14T01:36:02;5.17;;;1.57;;
15643;SDS011;7921;43.586;1.408;2023-03-14T01:38:29;3.87;;;1.67;;
15643;SDS011;7921;43.586;1.408;2023-03-14T01:40:55;6.43;;;2.07;;
15643;SDS011;7921;43.586;1.408;2023-03-14T01:43:21;2.93;;;1.57;;
15643;SDS011;7921;43.586;1.408;2023-03-14T01:49:09;7.10;;;1.90;;
15643;SDS011;7921;43.586;1.408;2023-03-14T01:54:28;5.27;;;1.77;;
15643;SDS011;7921;43.586;1.408;2023-03-14T01:59:35;5.23;;;1.93;;
15643;SDS011;7921;43.586;1.408;2023-03-14T02:02:03;7.63;;;2.97;;
15643;SDS011;7921;43.586;1.408;2023-03-14T02:04:32;8.80;;;3.03;;
15643;SDS011;7921;43.586;1.408;2023-03-14T02:07:04;6.23;;;2.67;;
15643;SDS011;7921;43.586;1.408;2023-03-14T02:09:33;6.20;;;2.13;;
15643;SDS011;7921;43.586;1.408;2023-03-14T02:11:59;7.77;;;2.57;;
15643;SDS011;7921;43.586;1.408;2023-03-14T02:14:27;8.37;;;2.67;;
15643;SDS011;7921;43.586;1.408;2023-03-14T02:16:55;9.47;;;2.83;;
15643;SDS011;7921;43.586;1.408;2023-03-14T02:19:25;6.77;;;2.30;;
15643;SDS011;7921;43.586;1.408;2023-03-14T02:27:23;7.87;;;2.80;;
15643;SDS011;7921;43.586;1.408;2023-03-14T02:32:29;9.77;;;2.60;;
15643;SDS011;7921;43.586;1.408;2023-03-14T02:34:56;6.03;;;2.93;;
15643;SDS011;7921;43.586;1.408;2023-03-14T02:37:24;7.73;;;2.47;;
15643;SDS011;7921;43.586;1.408;2023-03-14T02:39:54;7.70;;;2.80;;
15643;SDS011;7921;43.586;1.408;2023-03-14T02:42:19;7.47;;;2.60;;
15643;SDS011;7921;43.586;1.408;2023-03-14T02:44:59;6.70;;;2.57;;
15643;SDS011;7921;43.586;1.408;2023-03-14T02:47:48;9.30;;;2.90;;
15643;SDS011;7921;43.586;1.408;2023-03-14T02:50:16;9.47;;;2.90;;
15643;SDS011;7921;43.586;1.408;2023-03-14T02:52:44;6.37;;;2.37;;
15643;SDS011;7921;43.586;1.408;2023-03-14T02:55:09;6.00;;;2.30;;
15643;SDS011;7921;43.586;1.408;2023-03-14T02:57:35;7.57;;;2.77;;
15643;SDS011;7921;43.586;1.408;2023-03-14T03:00:00;7.63;;;2.50;;
15643;SDS011;7921;43.586;1.408;2023-03-14T03:02:29;8.20;;;2.97;;
15643;SDS011;7921;43.586;1.408;2023-03-14T03:04:54;9.37;;;2.90;;
15643;SDS011;7921;43.586;1.408;2023-03-14T03:07:20;5.73;;;2.00;;
15643;SDS011;7921;43.586;1.408;2023-03-14T03:09:45;6.50;;;2.37;;
15643;SDS011;7921;43.586;1.408;2023-03-14T03:12:11;6.07;;;1.93;;
15643;SDS011;7921;43.586;1.408;2023-03-14T03:14:36;8.27;;;2.53;;
15643;SDS011;7921;43.586;1.408;2023-03-14T03:17:02;5.77;;;2.50;;
15643;SDS011;7921;43.586;1.408;2023-03-14T03:19:31;7.53;;;2.87;;
15643;SDS011;7921;43.586;1.408;2023-03-14T03:21:57;7.57;;;2.60;;
15643;SDS011;7921;43.586;1.408;2023-03-14T03:24:23;6.07;;;2.87;;
15643;SDS011;7921;43.586;1.408;2023-03-14T03:26:49;6.90;;;3.07;;
15643;SDS011;7921;43.586;1.408;2023-03-14T03:29:14;7.67;;;2.57;;
15643;SDS011;7921;43.586;1.408;2023-03-14T03:31:39;8.10;;;2.60;;
15643;SDS011;7921;43.586;1.408;2023-03-14T03:34:05;9.63;;;3.17;;
15643;SDS011;7921;43.586;1.408;2023-03-14T03:36:30;7.30;;;2.80;;
15643;SDS011;7921;43.586;1.408;2023-03-14T03:38:56;8.33;;;2.97;;
15643;SDS011;7921;43.586;1.408;2023-03-14T03:41:21;8.23;;;2.83;;
15643;SDS011;7921;43.586;1.408;2023-03-14T03:43:46;6.80;;;2.80;;
15643;SDS011;7921;43.586;1.408;2023-03-14T03:46:12;6.73;;;2.37;;
15643;SDS011;7921;43.586;1.408;2023-03-14T03:48:37;6.10;;;2.40;;
15643;SDS011;7921;43.586;1.408;2023-03-14T03:51:03;7.17;;;2.40;;
15643;SDS011;7921;43.586;1.408;2023-03-14T03:53:29;5.77;;;2.20;;
15643;SDS011;7921;43.586;1.408;2023-03-14T03:55:54;6.57;;;2.60;;
15643;SDS011;7921;43.586;1.408;2023-03-14T03:58:20;7.40;;;2.47;;
15643;SDS011;7921;43.586;1.408;2023-03-14T04:00:45;8.93;;;2.57;;
15643;SDS011;7921;43.586;1.408;2023-03-14T04:03:10;5.27;;;1.87;;
15643;SDS011;7921;43.586;1.408;2023-03-14T04:05:36;6.67;;;2.20;;
15643;SDS011;7921;43.586;1.408;2023-03-14T04:08:02;4.90;;;2.13;;
15643;SDS011;7921;43.586;1.408;2023-03-14T04:10:28;9.13;;;3.03;;
15643;SDS011;7921;43.586;1.408;2023-03-14T04:12:53;6.53;;;2.90;;
15643;SDS011;7921;43.586;1.408;2023-03-14T04:15:19;8.67;;;2.77;;
15643;SDS011;7921;43.586;1.408;2023-03-14T04:17:44;9.80;;;2.70;;
15643;SDS011;7921;43.586;1.408;2023-03-14T04:20:10;9.77;;;3.17;;
15643;SDS011;7921;43.586;1.408;2023-03-14T04:22:36;7.37;;;2.27;;
15643;SDS011;7921;43.586;1.408;2023-03-14T04:25:02;13.90;;;3.70;;
15643;SDS011;7921;43.586;1.408;2023-03-14T04:27:28;6.17;;;2.43;;
15643;SDS011;7921;43.586;1.408;2023-03-14T04:29:54;6.40;;;2.40;;
15643;SDS011;7921;43.586;1.408;2023-03-14T04:32:19;9.23;;;3.17;;
15643;SDS011;7921;43.586;1.408;2023-03-14T04:34:45;8.23;;;2.60;;
15643;SDS011;7921;43.586;1.408;2023-03-14T04:37:10;6.60;;;2.53;;
15643;SDS011;7921;43.586;1.408;2023-03-14T04:39:36;8.53;;;2.57;;
15643;SDS011;7921;43.586;1.408;2023-03-14T04:42:01;5.80;;;2.53;;
15643;SDS011;7921;43.586;1.408;2023-03-14T04:44:27;6.43;;;2.43;;
15643;SDS011;7921;43.586;1.408;2023-03-14T04:46:52;7.07;;;2.70;;
15643;SDS011;7921;43.586;1.408;2023-03-14T04:49:18;6.37;;;2.53;;
15643;SDS011;7921;43.586;1.408;2023-03-14T04:51:43;5.13;;;2.60;;
15643;SDS011;7921;43.586;1.408;2023-03-14T04:54:08;11.87;;;3.10;;
15643;SDS011;7921;43.586;1.408;2023-03-14T04:56:34;8.97;;;2.43;;
15643;SDS011;7921;43.586;1.408;2023-03-14T04:58:59;7.47;;;2.83;;
15643;SDS011;7921;43.586;1.408;2023-03-14T05:01:25;9.87;;;3.10;;
15643;SDS011;7921;43.586;1.408;2023-03-14T05:03:50;9.60;;;3.17;;
15643;SDS011;7921;43.586;1.408;2023-03-14T05:06:16;9.97;;;3.10;;
15643;SDS011;7921;43.586;1.408;2023-03-14T05:08:41;10.97;;;3.57;;
15643;SDS011;7921;43.586;1.408;2023-03-14T05:11:09;9.63;;;3.23;;
15643;SDS011;7921;43.586;1.408;2023-03-14T05:13:35;7.23;;;3.30;;
15643;SDS011;7921;43.586;1.408;2023-03-14T05:16:04;11.10;;;3.73;;
15643;SDS011;7921;43.586;1.408;2023-03-14T05:18:33;11.13;;;3.57;;
15643;SDS011;7921;43.586;1.408;2023-03-14T05:20:59;11.17;;;3.67;;
15643;SDS011;7921;43.586;1.408;2023-03-14T05:23:24;12.90;;;3.83;;
15643;SDS011;7921;43.586;1.408;2023-03-14T05:25:50;11.73;;;3.80;;
15643;SDS011;7921;43.586;1.408;2023-03-14T05:28:15;11.70;;;3.90;;
15643;SDS011;7921;43.586;1.408;2023-03-14T05:30:40;10.00;;;3.60;;
15643;SDS011;7921;43.586;1.408;2023-03-14T05:33:06;12.50;;;3.93;;
15643;SDS011;7921;43.586;1.408;2023-03-14T05:35:31;9.37;;;3.37;;
15643;SDS011;7921;43.586;1.408;2023-03-14T05:37:57;9.50;;;2.83;;
15643;SDS011;7921;43.586;1.408;2023-03-14T05:40:22;8.83;;;3.50;;
15643;SDS011;7921;43.586;1.408;2023-03-14T05:42:47;6.87;;;3.17;;
15643;SDS011;7921;43.586;1.408;2023-03-14T05:45:13;9.33;;;3.30;;
15643;SDS011;7921;43.586;1.408;2023-03-14T05:47:38;10.00;;;3.37;;
15643;SDS011;7921;43.586;1.408;2023-03-14T05:50:04;8.13;;;3.53;;
15643;SDS011;7921;43.586;1.408;2023-03-14T05:52:29;7.10;;;2.93;;
15643;SDS011;7921;43.586;1.408;2023-03-14T05:54:55;8.00;;;2.93;;
15643;SDS011;7921;43.586;1.408;2023-03-14T05:57:20;8.60;;;2.87;;
15643;SDS011;7921;43.586;1.408;2023-03-14T05:59:45;6.57;;;2.60;;
15643;SDS011;7921;43.586;1.408;2023-03-14T06:02:11;9.10;;;2.97;;
15643;SDS011;7921;43.586;1.408;2023-03-14T06:04:36;8.60;;;2.97;;
15643;SDS011;7921;43.586;1.408;2023-03-14T06:07:01;9.00;;;3.13;;
15643;SDS011;7921;43.586;1.408;2023-03-14T06:09:27;5.97;;;3.00;;
15643;SDS011;7921;43.586;1.408;2023-03-14T06:11:52;12.07;;;3.80;;
15643;SDS011;7921;43.586;1.408;2023-03-14T06:14:18;9.57;;;3.50;;
15643;SDS011;7921;43.586;1.408;2023-03-14T06:16:43;11.30;;;4.30;;
15643;SDS011;7921;43.586;1.408;2023-03-14T06:19:09;9.20;;;4.00;;
15643;SDS011;7921;43.586;1.408;2023-03-14T06:21:35;8.30;;;3.13;;
15643;SDS011;7921;43.586;1.408;2023-03-14T06:24:01;9.27;;;3.80;;
15643;SDS011;7921;43.586;1.408;2023-03-14T06:26:26;7.27;;;3.40;;
15643;SDS011;7921;43.586;1.408;2023-03-14T06:28:51;9.33;;;3.73;;
15643;SDS011;7921;43.586;1.408;2023-03-14T06:31:18;11.67;;;3.70;;
15643;SDS011;7921;43.586;1.408;2023-03-14T06:33:44;12.77;;;3.63;;
15643;SDS011;7921;43.586;1.408;2023-03-14T06:36:09;6.87;;;3.63;;
15643;SDS011;7921;43.586;1.408;2023-03-14T06:38:35;8.17;;;3.00;;
15643;SDS011;7921;43.586;1.408;2023-03-14T06:41:04;11.53;;;3.40;;
15643;SDS011;7921;43.586;1.408;2023-03-14T06:43:30;12.40;;;4.33;;
15643;SDS011;7921;43.586;1.408;2023-03-14T06:45:55;11.73;;;4.17;;
15643;SDS011;7921;43.586;1.408;2023-03-14T06:48:20;11.57;;;3.87;;
15643;SDS011;7921;43.586;1.408;2023-03-14T06:50:47;11.90;;;3.90;;
15643;SDS011;7921;43.586;1.408;2023-03-14T06:53:13;10.07;;;3.97;;
15643;SDS011;7921;43.586;1.408;2023-03-14T06:55:38;9.73;;;3.80;;
15643;SDS011;7921;43.586;1.408;2023-03-14T06:58:04;13.10;;;4.07;;
15643;SDS011;7921;43.586;1.408;2023-03-14T07:00:29;11.13;;;4.10;;
15643;SDS011;7921;43.586;1.408;2023-03-14T07:02:55;10.83;;;3.60;;
15643;SDS011;7921;43.586;1.408;2023-03-14T07:05:20;18.47;;;5.33;;
15643;SDS011;7921;43.586;1.408;2023-03-14T07:07:46;12.40;;;4.80;;
15643;SDS011;7921;43.586;1.408;2023-03-14T07:10:11;18.20;;;5.50;;
15643;SDS011;7921;43.586;1.408;2023-03-14T07:12:36;16.50;;;5.23;;
15643;SDS011;7921;43.586;1.408;2023-03-14T07:15:02;14.47;;;5.17;;
15643;SDS011;7921;43.586;1.408;2023-03-14T07:17:27;17.93;;;5.13;;
15643;SDS011;7921;43.586;1.408;2023-03-14T07:19:53;12.50;;;4.63;;
15643;SDS011;7921;43.586;1.408;2023-03-14T07:22:18;16.37;;;5.07;;
15643;SDS011;7921;43.586;1.408;2023-03-14T07:24:44;17.57;;;5.33;;
15643;SDS011;7921;43.586;1.408;2023-03-14T07:27:09;14.47;;;4.73;;
15643;SDS011;7921;43.586;1.408;2023-03-14T07:29:34;15.67;;;5.40;;
15643;SDS011;7921;43.586;1.408;2023-03-14T07:32:00;13.13;;;5.03;;
15643;SDS011;7921;43.586;1.408;2023-03-14T07:34:25;19.03;;;5.53;;
15643;SDS011;7921;43.586;1.408;2023-03-14T07:36:50;16.17;;;4.87;;
15643;SDS011;7921;43.586;1.408;2023-03-14T07:39:16;12.30;;;5.10;;
15643;SDS011;7921;43.586;1.408;2023-03-14T07:41:41;20.00;;;5.57;;
15643;SDS011;7921;43.586;1.408;2023-03-14T07:44:06;15.40;;;5.63;;
15643;SDS011;7921;43.586;1.408;2023-03-14T07:46:32;17.37;;;5.57;;
15643;SDS011;7921;43.586;1.408;2023-03-14T07:48:58;18.17;;;6.07;;
15643;SDS011;7921;43.586;1.408;2023-03-14T07:51:23;17.60;;;5.70;;
15643;SDS011;7921;43.586;1.408;2023-03-14T07:53:48;18.60;;;5.70;;
15643;SDS011;7921;43.586;1.408;2023-03-14T07:56:14;16.93;;;6.20;;
15643;SDS011;7921;43.586;1.408;2023-03-14T07:58:39;18.53;;;5.60;;
15643;SDS011;7921;43.586;1.408;2023-03-14T08:01:05;13.30;;;5.40;;
15643;SDS011;7921;43.586;1.408;2023-03-14T08:03:30;17.73;;;5.43;;
15643;SDS011;7921;43.586;1.408;2023-03-14T08:05:56;13.90;;;5.23;;
15643;SDS011;7921;43.586;1.408;2023-03-14T08:08:21;15.43;;;5.10;;
15643;SDS011;7921;43.586;1.408;2023-03-14T08:10:46;17.17;;;5.70;;
15643;SDS011;7921;43.586;1.408;2023-03-14T08:13:12;17.20;;;4.87;;
15643;SDS011;7921;43.586;1.408;2023-03-14T08:15:37;15.80;;;5.87;;
15643;SDS011;7921;43.586;1.408;2023-03-14T08:18:03;21.63;;;5.97;;
15643;SDS011;7921;43.586;1.408;2023-03-14T08:20:30;15.27;;;6.07;;
15643;SDS011;7921;43.586;1.408;2023-03-14T08:22:56;19.37;;;6.07;;
15643;SDS011;7921;43.586;1.408;2023-03-14T08:25:22;16.33;;;5.33;;
15643;SDS011;7921;43.586;1.408;2023-03-14T08:27:48;17.13;;;5.50;;
15643;SDS011;7921;43.586;1.408;2023-03-14T08:30:14;20.93;;;6.33;;
15643;SDS011;7921;43.586;1.408;2023-03-14T08:32:40;13.27;;;4.70;;
15643;SDS011;7921;43.586;1.408;2023-03-14T08:35:06;14.90;;;4.90;;
15643;SDS011;7921;43.586;1.408;2023-03-14T08:37:32;18.10;;;5.77;;
15643;SDS011;7921;43.586;1.408;2023-03-14T08:39:58;14.03;;;5.23;;
15643;SDS011;7921;43.586;1.408;2023-03-14T08:42:24;12.80;;;5.20;;
15643;SDS011;7921;43.586;1.408;2023-03-14T08:44:50;14.83;;;5.00;;
15643;SDS011;7921;43.586;1.408;2023-03-14T08:47:16;13.33;;;4.37;;
15643;SDS011;7921;43.586;1.408;2023-03-14T08:49:41;15.07;;;5.37;;
15643;SDS011;7921;43.586;1.408;2023-03-14T08:52:06;12.23;;;5.07;;
15643;SDS011;7921;43.586;1.408;2023-03-14T08:54:32;12.97;;;4.73;;
15643;SDS011;7921;43.586;1.408;2023-03-14T08:56:57;14.20;;;4.87;;
15643;SDS011;7921;43.586;1.408;2023-03-14T08:59:23;12.93;;;4.30;;
15643;SDS011;7921;43.586;1.408;2023-03-14T09:01:48;11.23;;;4.50;;
15643;SDS011;7921;43.586;1.408;2023-03-14T09:04:14;12.77;;;4.40;;
15643;SDS011;7921;43.586;1.408;2023-03-14T09:06:39;10.67;;;3.90;;
15643;SDS011;7921;43.586;1.408;2023-03-14T09:09:05;14.60;;;4.37;;
15643;SDS011;7921;43.586;1.408;2023-03-14T09:11:31;13.07;;;5.17;;
15643;SDS011;7921;43.586;1.408;2023-03-14T09:13:56;11.87;;;4.40;;
15643;SDS011;7921;43.586;1.408;2023-03-14T09:16:22;13.40;;;5.13;;
15643;SDS011;7921;43.586;1.408;2023-03-14T09:18:48;12.97;;;4.77;;
15643;SDS011;7921;43.586;1.408;2023-03-14T09:21:13;13.43;;;4.03;;
15643;SDS011;7921;43.586;1.408;2023-03-14T09:23:39;9.57;;;3.43;;
15643;SDS011;7921;43.586;1.408;2023-03-14T09:26:05;7.60;;;2.77;;
15643;SDS011;7921;43.586;1.408;2023-03-14T09:28:31;6.73;;;2.70;;
15643;SDS011;7921;43.586;1.408;2023-03-14T09:30:56;6.00;;;2.30;;
15643;SDS011;7921;43.586;1.408;2023-03-14T09:33:22;6.73;;;2.43;;
15643;SDS011;7921;43.586;1.408;2023-03-14T09:35:48;4.97;;;2.17;;
15643;SDS011;7921;43.586;1.408;2023-03-14T09:38:13;4.20;;;2.17;;
15643;SDS011;7921;43.586;1.408;2023-03-14T09:40:39;4.57;;;2.00;;
15643;SDS011;7921;43.586;1.408;2023-03-14T09:43:05;5.83;;;2.83;;
15643;SDS011;7921;43.586;1.408;2023-03-14T09:45:37;5.07;;;2.27;;
15643;SDS011;7921;43.586;1.408;2023-03-14T09:48:05;6.97;;;2.60;;
15643;SDS011;7921;43.586;1.408;2023-03-14T09:50:36;7.10;;;2.67;;
15643;SDS011;7921;43.586;1.408;2023-03-14T09:53:09;7.43;;;2.70;;
15643;SDS011;7921;43.586;1.408;2023-03-14T09:55:38;9.47;;;2.97;;
15643;SDS011;7921;43.586;1.408;2023-03-14T09:58:09;11.30;;;3.47;;
15643;SDS011;7921;43.586;1.408;2023-03-14T10:00:36;10.10;;;3.20;;
15643;SDS011;7921;43.586;1.408;2023-03-14T10:05:45;6.63;;;2.47;;
15643;SDS011;7921;43.586;1.408;2023-03-14T10:08:11;8.20;;;2.80;;
15643;SDS011;7921;43.586;1.408;2023-03-14T10:10:37;5.30;;;2.20;;
15643;SDS011;7921;43.586;1.408;2023-03-14T10:16:11;7.77;;;3.17;;
15643;SDS011;7921;43.586;1.408;2023-03-14T10:18:38;7.53;;;3.10;;
15643;SDS011;7921;43.586;1.408;2023-03-14T10:23:46;7.17;;;2.90;;
15643;SDS011;7921;43.586;1.408;2023-03-14T10:28:44;7.53;;;3.03;;
15643;SDS011;7921;43.586;1.408;2023-03-14T10:31:11;8.50;;;2.93;;
15643;SDS011;7921;43.586;1.408;2023-03-14T10:33:37;6.97;;;3.00;;
15643;SDS011;7921;43.586;1.408;2023-03-14T10:36:05;6.43;;;2.50;;
15643;SDS011;7921;43.586;1.408;2023-03-14T10:38:40;8.03;;;3.20;;
15643;SDS011;7921;43.586;1.408;2023-03-14T10:43:51;5.43;;;2.67;;
15643;SDS011;7921;43.586;1.408;2023-03-14T10:46:19;7.63;;;3.17;;
15643;SDS011;7921;43.586;1.408;2023-03-14T10:48:47;8.23;;;2.40;;
15643;SDS011;7921;43.586;1.408;2023-03-14T10:53:47;7.83;;;2.70;;
15643;SDS011;7921;43.586;1.408;2023-03-14T10:56:20;7.77;;;2.40;;
15643;SDS011;7921;43.586;1.408;2023-03-14T10:58:47;6.27;;;2.37;;
15643;SDS011;7921;43.586;1.408;2023-03-14T11:04:02;4.67;;;1.90;;
15643;SDS011;7921;43.586;1.408;2023-03-14T11:06:42;5.70;;;1.97;;
15643;SDS011;7921;43.586;1.408;2023-03-14T11:15:16;4.53;;;1.30;;
15643;SDS011;7921;43.586;1.408;2023-03-14T11:28:50;4.37;;;1.90;;
15643;SDS011;7921;43.586;1.408;2023-03-14T11:31:28;4.17;;;1.60;;
15643;SDS011;7921;43.586;1.408;2023-03-14T11:34:14;4.07;;;1.30;;
15643;SDS011;7921;43.586;1.408;2023-03-14T11:36:51;3.67;;;1.40;;
15643;SDS011;7921;43.586;1.408;2023-03-14T11:39:18;4.47;;;2.27;;
15643;SDS011;7921;43.586;1.408;2023-03-14T11:41:45;4.70;;;1.60;;
15643;SDS011;7921;43.586;1.408;2023-03-14T11:44:20;2.87;;;1.20;;
15643;SDS011;7921;43.586;1.408;2023-03-14T11:46:52;4.47;;;1.70;;
15643;SDS011;7921;43.586;1.408;2023-03-14T11:49:24;2.90;;;1.53;;
15643;SDS011;7921;43.586;1.408;2023-03-14T11:52:06;4.37;;;1.77;;
15643;SDS011;7921;43.586;1.408;2023-03-14T11:54:39;3.67;;;1.60;;
15643;SDS011;7921;43.586;1.408;2023-03-14T12:04:54;4.47;;;2.23;;
15643;SDS011;7921;43.586;1.408;2023-03-14T12:10:18;2.30;;;1.10;;
15643;SDS011;7921;43.586;1.408;2023-03-14T12:12:44;2.53;;;1.30;;
15643;SDS011;7921;43.586;1.408;2023-03-14T12:15:15;3.43;;;1.60;;
15643;SDS011;7921;43.586;1.408;2023-03-14T12:17:43;3.77;;;1.20;;
15643;SDS011;7921;43.586;1.408;2023-03-14T12:20:21;3.50;;;1.20;;
15643;SDS011;7921;43.586;1.408;2023-03-14T12:22:48;2.90;;;1.27;;
15643;SDS011;7921;43.586;1.408;2023-03-14T12:25:23;1.50;;;1.40;;
15643;SDS011;7921;43.586;1.408;2023-03-14T12:30:32;2.97;;;1.33;;
15643;SDS011;7921;43.586;1.408;2023-03-14T12:35:48;3.13;;;1.27;;
15643;SDS011;7921;43.586;1.408;2023-03-14T12:41:03;3.13;;;1.50;;
15643;SDS011;7921;43.586;1.408;2023-03-14T12:43:37;4.97;;;1.73;;
15643;SDS011;7921;43.586;1.408;2023-03-14T12:48:56;4.77;;;1.60;;
15643;SDS011;7921;43.586;1.408;2023-03-14T12:54:25;4.33;;;1.90;;
15643;SDS011;7921;43.586;1.408;2023-03-14T12:59:59;3.53;;;1.77;;
15643;SDS011;7921;43.586;1.408;2023-03-14T13:02:29;3.73;;;1.40;;
15643;SDS011;7921;43.586;1.408;2023-03-14T13:12:51;3.67;;;1.73;;
15643;SDS011;7921;43.586;1.408;2023-03-14T13:15:29;3.10;;;1.40;;
15643;SDS011;7921;43.586;1.408;2023-03-14T13:18:01;4.20;;;1.83;;
15643;SDS011;7921;43.586;1.408;2023-03-14T13:20:29;3.77;;;1.80;;
15643;SDS011;7921;43.586;1.408;2023-03-14T13:22:57;4.30;;;1.43;;
15643;SDS011;7921;43.586;1.408;2023-03-14T13:25:22;5.07;;;1.97;;
15643;SDS011;7921;43.586;1.408;2023-03-14T13:27:48;4.70;;;1.57;;
15643;SDS011;7921;43.586;1.408;2023-03-14T13:30:27;2.83;;;1.00;;
15643;SDS011;7921;43.586;1.408;2023-03-14T13:32:55;5.33;;;1.93;;
15643;SDS011;7921;43.586;1.408;2023-03-14T13:35:27;4.70;;;1.30;;
15643;SDS011;7921;43.586;1.408;2023-03-14T13:38:03;4.53;;;1.60;;
15643;SDS011;7921;43.586;1.408;2023-03-14T13:40:33;3.37;;;1.30;;
15643;SDS011;7921;43.586;1.408;2023-03-14T13:43:01;4.07;;;1.37;;
15643;SDS011;7921;43.586;1.408;2023-03-14T13:45:28;3.03;;;1.40;;
15643;SDS011;7921;43.586;1.408;2023-03-14T13:47:53;1.80;;;0.97;;
15643;SDS011;7921;43.586;1.408;2023-03-14T13:50:19;2.77;;;1.13;;
15643;SDS011;7921;43.586;1.408;2023-03-14T13:52:44;1.17;;;0.60;;
15643;SDS011;7921;43.586;1.408;2023-03-14T13:55:15;2.53;;;1.23;;
15643;SDS011;7921;43.586;1.408;2023-03-14T13:57:43;1.37;;;0.40;;
15643;SDS011;7921;43.586;1.408;2023-03-14T14:00:19;1.13;;;0.60;;
15643;SDS011;7921;43.586;1.408;2023-03-14T14:02:46;1.73;;;0.83;;
15643;SDS011;7921;43.586;1.408;2023-03-14T14:05:12;1.37;;;0.80;;
15643;SDS011;7921;43.586;1.408;2023-03-14T14:07:38;0.50;;;0.50;;
15643;SDS011;7921;43.586;1.408;2023-03-14T14:10:04;1.57;;;0.70;;
15643;SDS011;7921;43.586;1.408;2023-03-14T14:12:32;1.13;;;0.60;;
15643;SDS011;7921;43.586;1.408;2023-03-14T14:15:10;0.77;;;0.60;;
15643;SDS011;7921;43.586;1.408;2023-03-14T14:17:50;1.20;;;0.60;;
15643;SDS011;7921;43.586;1.408;2023-03-14T14:20:26;2.50;;;0.70;;
15643;SDS011;7921;43.586;1.408;2023-03-14T14:23:00;1.80;;;0.93;;
15643;SDS011;7921;43.586;1.408;2023-03-14T14:25:28;1.00;;;0.70;;
15643;SDS011;7921;43.586;1.408;2023-03-14T14:27:53;2.10;;;1.00;;
15643;SDS011;7921;43.586;1.408;2023-03-14T14:32:48;1.60;;;1.00;;
15643;SDS011;7921;43.586;1.408;2023-03-14T14:35:22;1.93;;;1.00;;
15643;SDS011;7921;43.586;1.408;2023-03-14T14:37:55;3.77;;;1.50;;
15643;SDS011;7921;43.586;1.408;2023-03-14T14:40:22;1.93;;;1.10;;
15643;SDS011;7921;43.586;1.408;2023-03-14T14:42:49;2.07;;;1.37;;
15643;SDS011;7921;43.586;1.408;2023-03-14T14:45:22;2.87;;;1.13;;
15643;SDS011;7921;43.586;1.408;2023-03-14T14:47:52;2.23;;;0.90;;
15643;SDS011;7921;43.586;1.408;2023-03-14T14:50:25;1.70;;;0.80;;
15643;SDS011;7921;43.586;1.408;2023-03-14T14:52:58;2.10;;;1.43;;
15643;SDS011;7921;43.586;1.408;2023-03-14T14:55:32;2.07;;;1.10;;
15643;SDS011;7921;43.586;1.408;2023-03-14T14:58:18;2.67;;;1.17;;
15643;SDS011;7921;43.586;1.408;2023-03-14T15:00:55;3.27;;;1.03;;
15643;SDS011;7921;43.586;1.408;2023-03-14T15:03:28;2.63;;;0.93;;
15643;SDS011;7921;43.586;1.408;2023-03-14T15:05:55;2.17;;;1.17;;
15643;SDS011;7921;43.586;1.408;2023-03-14T15:08:21;1.87;;;1.00;;
15643;SDS011;7921;43.586;1.408;2023-03-14T15:10:47;2.87;;;1.33;;
15643;SDS011;7921;43.586;1.408;2023-03-14T15:13:13;3.20;;;1.10;;
15643;SDS011;7921;43.586;1.408;2023-03-14T15:15:38;2.83;;;1.10;;
15643;SDS011;7921;43.586;1.408;2023-03-14T15:18:12;3.17;;;1.10;;
15643;SDS011;7921;43.586;1.408;2023-03-14T15:20:39;2.27;;;1.10;;
15643;SDS011;7921;43.586;1.408;2023-03-14T15:23:09;4.63;;;1.40;;
15643;SDS011;7921;43.586;1.408;2023-03-14T15:25:35;2.47;;;1.30;;
15643;SDS011;7921;43.586;1.408;2023-03-14T15:28:01;2.33;;;1.13;;
15643;SDS011;7921;43.586;1.408;2023-03-14T15:30:27;4.23;;;1.37;;
15643;SDS011;7921;43.586;1.408;2023-03-14T15:32:52;3.70;;;1.27;;
15643;SDS011;7921;43.586;1.408;2023-03-14T15:35:17;4.20;;;1.40;;
15643;SDS011;7921;43.586;1.408;2023-03-14T15:37:43;2.30;;;0.90;;
15643;SDS011;7921;43.586;1.408;2023-03-14T15:40:10;2.13;;;1.20;;
15643;SDS011;7921;43.586;1.408;2023-03-14T15:42:39;3.57;;;1.90;;
15643;SDS011;7921;43.586;1.408;2023-03-14T15:45:05;1.30;;;0.90;;
15643;SDS011;7921;43.586;1.408;2023-03-14T15:47:31;1.87;;;1.33;;
15643;SDS011;7921;43.586;1.408;2023-03-14T15:49:57;2.03;;;1.83;;
15643;SDS011;7921;43.586;1.408;2023-03-14T15:52:23;1.80;;;1.27;;
15643;SDS011;7921;43.586;1.408;2023-03-14T15:54:48;2.07;;;1.20;;
15643;SDS011;7921;43.586;1.408;2023-03-14T15:57:13;2.80;;;0.93;;
15643;SDS011;7921;43.586;1.408;2023-03-14T15:59:39;0.83;;;0.70;;
15643;SDS011;7921;43.586;1.408;2023-03-14T16:02:04;2.63;;;0.90;;
15643;SDS011;7921;43.586;1.408;2023-03-14T16:04:30;2.10;;;0.90;;
15643;SDS011;7921;43.586;1.408;2023-03-14T16:06:55;2.47;;;1.30;;
15643;SDS011;7921;43.586;1.408;2023-03-14T16:09:21;2.10;;;1.10;;
15643;SDS011;7921;43.586;1.408;2023-03-14T16:11:48;1.20;;;0.90;;
15643;SDS011;7921;43.586;1.408;2023-03-14T16:14:13;1.67;;;1.30;;
15643;SDS011;7921;43.586;1.408;2023-03-14T16:16:39;3.63;;;1.33;;
15643;SDS011;7921;43.586;1.408;2023-03-14T16:19:05;2.87;;;1.10;;
15643;SDS011;7921;43.586;1.408;2023-03-14T16:21:31;3.20;;;1.10;;
15643;SDS011;7921;43.586;1.408;2023-03-14T16:23:58;1.43;;;1.13;;
15643;SDS011;7921;43.586;1.408;2023-03-14T16:26:24;5.53;;;1.50;;
15643;SDS011;7921;43.586;1.408;2023-03-14T16:28:49;2.13;;;1.40;;